createdAt,value
2019-01-05T00:02:53.966Z,-5.01
2019-01-05T00:05:42.004Z,-5.00
2019-01-05T00:08:32.342Z,-5.00
2019-01-05T00:11:26.418Z,-4.98
2019-01-05T00:14:15.172Z,-4.92
2019-01-05T00:17:13.440Z,-4.89
2019-01-05T00:20:09.118Z,-4.96
2019-01-05T00:22:57.932Z,-4.95
2019-01-05T00:26:00.637Z,-5.00
2019-01-05T00:28:49.985Z,-4.99
2019-01-05T00:31:50.184Z,-4.93
2019-01-05T00:35:00.637Z,-4.92
2019-01-05T00:37:52.680Z,-4.89
2019-01-05T00:40:39.801Z,-4.99
2019-01-05T00:43:43.240Z,-4.99
2019-01-05T00:46:33.009Z,-4.98
2019-01-05T00:49:24.767Z,-5.11
2019-01-05T00:52:15.887Z,-5.03
2019-01-05T00:55:10.779Z,-5.02
2019-01-05T00:58:13.444Z,-5.04
2019-01-05T01:01:03.746Z,-5.04
2019-01-05T01:03:52.574Z,-5.02
2019-01-05T01:06:43.100Z,-5.09
2019-01-05T01:09:42.471Z,-5.03
2019-01-05T01:12:32.791Z,-5.11
2019-01-05T01:15:21.685Z,-5.10
2019-01-05T01:18:21.323Z,-5.19
2019-01-05T01:21:30.570Z,-5.08
2019-01-05T01:24:23.546Z,-5.01
2019-01-05T01:27:16.381Z,-4.84
2019-01-05T01:30:05.480Z,-4.83
2019-01-05T01:32:56.953Z,-4.72
2019-01-05T01:35:51.065Z,-4.73
2019-01-05T01:39:02.424Z,-4.73
2019-01-05T01:42:05.633Z,-4.72
2019-01-05T01:45:05.173Z,-4.76
2019-01-05T01:47:56.756Z,-4.83
2019-01-05T01:50:49.919Z,-4.92
2019-01-05T01:53:40.904Z,-4.91
2019-01-05T01:56:41.069Z,-4.93
2019-01-05T01:59:51.704Z,-5.07
2019-01-05T02:02:42.992Z,-5.05
2019-01-05T02:05:43.244Z,-5.18
2019-01-05T02:08:35.065Z,-5.22
2019-01-05T02:11:33.479Z,-5.26
2019-01-05T02:14:40.121Z,-5.33
2019-01-05T02:17:57.520Z,-5.36
2019-01-05T02:21:14.943Z,-5.30
2019-01-05T02:24:41.375Z,-5.38
2019-01-05T02:28:36.407Z,-5.40
2019-01-05T02:31:51.479Z,-5.54
2019-01-05T02:35:16.775Z,-5.64
2019-01-05T02:38:42.319Z,-5.81
2019-01-05T02:42:05.763Z,-5.80
2019-01-05T02:45:35.123Z,-5.82
2019-01-05T02:49:12.014Z,-6.00
2019-01-05T02:52:46.927Z,-5.94
2019-01-05T02:56:13.341Z,-6.00
2019-01-05T02:59:47.649Z,-6.03
2019-01-05T03:03:22.556Z,-5.98
2019-01-05T03:07:02.367Z,-5.96
2019-01-05T03:10:23.387Z,-5.92
2019-01-05T03:13:42.959Z,-5.91
2019-01-05T03:17:11.489Z,-5.84
2019-01-05T03:20:57.057Z,-5.78
2019-01-05T03:24:24.131Z,-5.78
2019-01-05T03:28:05.306Z,-5.71
2019-01-05T03:31:30.255Z,-5.63
2019-01-05T03:38:38.329Z,-5.64
2019-01-05T03:42:15.021Z,-5.59
2019-01-05T03:45:34.226Z,-5.61
2019-01-05T03:48:54.575Z,-5.59
2019-01-05T03:52:30.193Z,-5.56
2019-01-05T03:55:59.319Z,-5.59
2019-01-05T03:59:24.032Z,-5.71
2019-01-05T04:02:52.071Z,-5.76
2019-01-05T04:06:14.216Z,-5.80
2019-01-05T04:09:31.915Z,-5.75
2019-01-05T04:13:20.214Z,-5.78
2019-01-05T04:16:51.131Z,-5.80
2019-01-05T04:20:34.326Z,-5.76
2019-01-05T04:24:10.813Z,-5.66
2019-01-05T04:27:47.300Z,-5.63
2019-01-05T04:31:57.618Z,-5.62
2019-01-05T04:35:43.861Z,-5.72
2019-01-05T04:39:08.634Z,-5.62
2019-01-05T04:42:57.820Z,-5.70
2019-01-05T04:46:48.409Z,-5.76
2019-01-05T04:50:17.766Z,-5.66
2019-01-05T04:53:34.450Z,-5.72
2019-01-05T04:56:57.724Z,-5.87
2019-01-05T05:00:35.760Z,-5.83
2019-01-05T05:04:03.623Z,-5.80
2019-01-05T05:07:39.444Z,-5.77
2019-01-05T05:11:17.682Z,-5.79
2019-01-05T05:15:15.059Z,-5.84
2019-01-05T05:18:36.943Z,-5.91
2019-01-05T05:22:06.723Z,-5.91
2019-01-05T05:25:38.947Z,-5.86
2019-01-05T05:29:33.666Z,-5.97
2019-01-05T05:33:05.893Z,-5.98
2019-01-05T05:36:28.569Z,-5.99
2019-01-05T05:40:06.617Z,-6.04
2019-01-05T05:43:31.684Z,-6.10
2019-01-05T05:46:54.056Z,-6.05
2019-01-05T05:50:23.348Z,-6.10
2019-01-05T05:54:18.184Z,-6.29
2019-01-05T05:57:48.577Z,-6.50
2019-01-05T06:01:27.059Z,-6.41
2019-01-05T06:05:11.449Z,-6.78
2019-01-05T06:08:51.022Z,-6.78
2019-01-05T06:12:15.722Z,-6.74
2019-01-05T06:15:47.442Z,-6.81
2019-01-05T06:19:16.447Z,-6.77
2019-01-05T06:22:48.998Z,-6.77
2019-01-05T06:26:43.104Z,-6.72
2019-01-05T06:30:08.962Z,-6.82
2019-01-05T06:34:01.132Z,-6.71
2019-01-05T06:37:24.405Z,-6.60
2019-01-05T06:44:38.349Z,-6.32
2019-01-05T06:48:12.190Z,-6.13
2019-01-05T06:51:58.681Z,-5.89
2019-01-05T06:55:37.731Z,-5.61
2019-01-05T06:59:09.910Z,-5.32
2019-01-05T07:02:47.221Z,-5.06
2019-01-05T07:06:30.671Z,-4.87
2019-01-05T07:10:12.249Z,-4.68
2019-01-05T07:13:51.566Z,-4.44
2019-01-05T07:17:19.301Z,-4.24
2019-01-05T07:20:48.446Z,-4.14
2019-01-05T07:24:36.489Z,-4.18
2019-01-05T07:27:53.969Z,-4.11
2019-01-05T07:31:21.419Z,-4.09
2019-01-05T07:35:12.925Z,-4.02
2019-01-05T07:38:38.030Z,-3.97
2019-01-05T07:42:16.657Z,-3.98
2019-01-05T07:45:37.789Z,-3.92
2019-01-05T07:49:03.995Z,-4.08
2019-01-05T07:52:45.389Z,-4.04
2019-01-05T07:56:19.919Z,-4.00
2019-01-05T08:00:01.270Z,-4.03
2019-01-05T08:03:39.149Z,-4.06
2019-01-05T08:07:09.099Z,-4.05
2019-01-05T08:10:47.943Z,-4.02
2019-01-05T08:14:17.995Z,-3.96
2019-01-05T08:17:53.307Z,-3.97
2019-01-05T08:21:25.213Z,-4.02
2019-01-05T08:24:57.502Z,-3.98
2019-01-05T08:28:38.620Z,-4.00
2019-01-05T08:32:05.263Z,-4.02
2019-01-05T08:36:18.221Z,-3.78
2019-01-05T08:40:04.391Z,-3.76
2019-01-05T08:43:38.787Z,-3.62
2019-01-05T08:47:39.211Z,-3.48
2019-01-05T08:51:36.478Z,-3.25
2019-01-05T08:55:06.121Z,-2.96
2019-01-05T08:58:56.098Z,-2.76
2019-01-05T09:02:15.082Z,-2.58
2019-01-05T09:06:03.481Z,-2.25
2019-01-05T09:09:46.641Z,-1.84
2019-01-05T09:13:11.452Z,-1.54
2019-01-05T09:17:06.428Z,-1.23
2019-01-05T09:20:35.668Z,-0.93
2019-01-05T09:24:35.443Z,-0.71
2019-01-05T09:28:17.539Z,-0.47
2019-01-05T09:31:49.171Z,-0.41
2019-01-05T09:35:41.056Z,-0.91
2019-01-05T09:39:13.683Z,-1.06
2019-01-05T09:42:26.849Z,-0.82
2019-01-05T09:46:08.514Z,-0.18
2019-01-05T09:49:50.354Z,-0.02
2019-01-05T09:53:18.438Z,0.16
2019-01-05T09:56:59.269Z,0.11
2019-01-05T10:00:28.741Z,-0.07
2019-01-05T10:04:03.649Z,-0.06
2019-01-05T10:07:38.784Z,-0.02
2019-01-05T10:11:18.540Z,-0.22
2019-01-05T10:14:44.531Z,-0.15
2019-01-05T10:18:14.672Z,-0.43
2019-01-05T10:21:45.748Z,-0.50
2019-01-05T10:25:30.034Z,-0.85
2019-01-05T10:29:19.433Z,-0.97
2019-01-05T10:32:51.397Z,-1.09
2019-01-05T10:36:29.984Z,-1.02
2019-01-05T10:40:03.512Z,-1.14
2019-01-05T10:43:21.596Z,-1.29
2019-01-05T10:46:51.236Z,-1.40
2019-01-05T10:50:30.075Z,-1.35
2019-01-05T10:54:02.338Z,-1.34
2019-01-05T10:57:30.145Z,-1.57
2019-01-05T11:01:02.142Z,-1.62
2019-01-05T11:04:51.114Z,-1.52
2019-01-05T11:08:16.427Z,-1.37
2019-01-05T11:12:01.473Z,-1.51
2019-01-05T11:15:45.805Z,-1.54
2019-01-05T11:19:13.590Z,-1.49
2019-01-05T11:22:55.682Z,-1.46
2019-01-05T11:26:18.789Z,-1.58
2019-01-05T11:29:52.551Z,-1.59
2019-01-05T11:33:36.422Z,-1.62
2019-01-05T11:37:01.539Z,-1.71
2019-01-05T11:40:56.290Z,-1.90
2019-01-05T11:44:35.952Z,-1.85
2019-01-05T11:48:27.327Z,-1.87
2019-01-05T11:51:42.961Z,-1.79
2019-01-05T11:55:27.174Z,-1.74
2019-01-05T11:59:17.358Z,-1.81
2019-01-05T12:02:43.736Z,-1.95
2019-01-05T12:06:09.020Z,-1.85
2019-01-05T12:09:53.371Z,-1.77
2019-01-05T12:13:27.586Z,-1.96
2019-01-05T12:16:52.179Z,-2.01
2019-01-05T12:20:31.678Z,-1.96
2019-01-05T12:24:28.379Z,-1.91
2019-01-05T12:28:13.023Z,-1.90
2019-01-05T12:31:50.751Z,-1.85
2019-01-05T12:35:24.514Z,-1.91
2019-01-05T12:39:19.868Z,-1.88
2019-01-05T12:42:56.143Z,-1.85
2019-01-05T12:46:37.338Z,-1.96
2019-01-05T12:50:10.241Z,-1.97
2019-01-05T12:53:34.141Z,-2.03
2019-01-05T12:57:07.841Z,-2.10
2019-01-05T13:00:35.840Z,-2.01
2019-01-05T13:04:01.577Z,-2.02
2019-01-05T13:07:58.272Z,-1.94
2019-01-05T13:11:34.601Z,-2.07
2019-01-05T13:15:08.101Z,-2.17
2019-01-05T13:18:32.222Z,-2.05
2019-01-05T13:21:56.421Z,-2.07
2019-01-05T13:25:36.923Z,-2.07
2019-01-05T13:29:17.179Z,-1.96
2019-01-05T13:32:49.139Z,-2.10
2019-01-05T13:36:21.204Z,-2.02
2019-01-05T13:39:47.272Z,-2.05
2019-01-05T13:43:47.390Z,-1.98
2019-01-05T13:47:25.771Z,-1.94
2019-01-05T13:50:54.017Z,-1.79
2019-01-05T13:54:06.815Z,-1.72
2019-01-05T13:57:00.125Z,-1.74
2019-01-05T13:59:42.031Z,-1.76
2019-01-05T14:02:31.082Z,-1.82
2019-01-05T14:05:30.202Z,-1.75
2019-01-05T14:08:20.485Z,-1.74
2019-01-05T14:11:17.819Z,-1.77
2019-01-05T14:14:06.448Z,-1.75
2019-01-05T14:16:59.872Z,-1.81
2019-01-05T14:19:48.548Z,-1.84
2019-01-05T14:22:35.270Z,-1.83
2019-01-05T14:25:26.864Z,-1.91
2019-01-05T14:28:34.790Z,-1.89
2019-01-05T14:31:43.080Z,-1.79
2019-01-05T14:34:42.644Z,-1.70
2019-01-05T14:37:35.928Z,-1.77
2019-01-05T14:40:25.339Z,-1.78
2019-01-05T14:43:14.331Z,-1.80
2019-01-05T14:46:03.131Z,-1.83
2019-01-05T14:48:51.933Z,-1.76
2019-01-05T14:51:45.395Z,-1.87
2019-01-05T14:54:34.572Z,-1.88
2019-01-05T14:57:40.229Z,-1.80
2019-01-05T15:00:39.994Z,-1.79
2019-01-05T15:03:36.256Z,-1.81
2019-01-05T15:06:26.466Z,-1.87
2019-01-05T15:09:28.594Z,-1.85
2019-01-05T15:12:30.886Z,-1.80
2019-01-05T15:15:35.728Z,-1.89
2019-01-05T15:18:28.994Z,-1.85
2019-01-05T15:21:18.038Z,-1.85
2019-01-05T15:24:06.219Z,-1.78
2019-01-05T15:27:02.999Z,-1.81
2019-01-05T15:29:56.369Z,-1.87
2019-01-05T15:32:52.632Z,-1.86
2019-01-05T15:35:41.691Z,-1.86
2019-01-05T15:38:33.487Z,-1.83
2019-01-05T15:41:22.137Z,-1.82
2019-01-05T15:44:30.551Z,-1.89
2019-01-05T15:47:14.686Z,-1.90
2019-01-05T15:50:03.985Z,-1.92
2019-01-05T15:52:54.108Z,-1.87
2019-01-05T15:55:50.733Z,-1.88
2019-01-05T15:58:56.246Z,-1.90
2019-01-05T16:01:58.781Z,-1.90
2019-01-05T16:05:07.092Z,-1.92
2019-01-05T16:07:55.681Z,-1.88
2019-01-05T16:10:57.848Z,-1.94
2019-01-05T16:13:51.168Z,-1.98
2019-01-05T16:16:56.587Z,-1.99
2019-01-05T16:20:04.999Z,-2.06
2019-01-05T16:23:02.723Z,-2.17
2019-01-05T16:25:51.533Z,-2.22
2019-01-05T16:28:44.601Z,-2.21
2019-01-05T16:31:40.680Z,-2.22
2019-01-05T16:34:29.886Z,-2.29
2019-01-05T16:37:18.656Z,-2.38
2019-01-05T16:40:07.353Z,-2.38
2019-01-05T16:42:57.515Z,-2.46
2019-01-05T16:45:47.669Z,-2.42
2019-01-05T16:48:49.697Z,-2.45
2019-01-05T16:51:39.705Z,-2.42
2019-01-05T16:54:26.310Z,-2.41
2019-01-05T16:57:28.941Z,-2.46
2019-01-05T17:00:25.134Z,-2.42
2019-01-05T17:03:24.462Z,-2.48
2019-01-05T17:06:17.443Z,-2.47
2019-01-05T17:09:06.187Z,-2.58
2019-01-05T17:11:56.749Z,-2.57
2019-01-05T17:14:55.723Z,-2.67
2019-01-05T17:17:45.923Z,-2.73
2019-01-05T17:20:30.348Z,-2.65
2019-01-05T17:23:21.482Z,-2.70
2019-01-05T17:26:17.773Z,-2.79
2019-01-05T17:29:13.835Z,-2.81
2019-01-05T17:32:04.340Z,-2.79
2019-01-05T17:34:53.291Z,-2.95
2019-01-05T17:37:49.398Z,-3.04
2019-01-05T17:40:48.851Z,-3.04
2019-01-05T17:43:57.309Z,-3.08
2019-01-05T17:46:47.507Z,-3.08
2019-01-05T17:49:50.047Z,-3.22
2019-01-05T17:52:43.027Z,-3.28
2019-01-05T17:55:49.986Z,-3.20
2019-01-05T17:58:55.374Z,-3.19
2019-01-05T18:01:54.306Z,-3.22
2019-01-05T18:04:50.401Z,-3.22
2019-01-05T18:07:46.502Z,-3.28
2019-01-05T18:10:36.623Z,-3.28
2019-01-05T18:13:29.650Z,-3.36
2019-01-05T18:16:18.457Z,-3.37
2019-01-05T18:19:09.580Z,-3.38
2019-01-05T18:21:59.608Z,-3.42
2019-01-05T18:25:01.203Z,-3.46
2019-01-05T18:27:50.031Z,-3.44
2019-01-05T18:30:38.727Z,-3.52
2019-01-05T18:33:27.720Z,-3.59
2019-01-05T18:36:27.054Z,-3.58
2019-01-05T18:39:22.039Z,-3.63
2019-01-05T18:42:11.177Z,-3.69
2019-01-05T18:45:00.136Z,-3.68
2019-01-05T18:47:49.098Z,-3.63
2019-01-05T18:50:38.526Z,-3.71
2019-01-05T18:53:21.733Z,-3.75
2019-01-05T18:56:08.121Z,-3.77
2019-01-05T18:59:01.632Z,-3.75
2019-01-05T19:01:51.974Z,-3.76
2019-01-05T19:04:57.285Z,-3.77
2019-01-05T19:07:46.120Z,-3.78
2019-01-05T19:10:35.318Z,-3.83
2019-01-05T19:13:35.221Z,-3.90
2019-01-05T19:16:24.283Z,-4.01
2019-01-05T19:19:26.830Z,-4.02
2019-01-05T19:22:29.108Z,-4.09
2019-01-05T19:25:18.293Z,-4.09
2019-01-05T19:28:08.524Z,-4.22
2019-01-05T19:31:01.615Z,-4.18
2019-01-05T19:33:50.406Z,-4.18
2019-01-05T19:36:38.809Z,-4.27
2019-01-05T19:39:27.626Z,-4.27
2019-01-05T19:42:16.368Z,-4.28
2019-01-05T19:45:23.913Z,-4.31
2019-01-05T19:48:26.302Z,-4.31
2019-01-05T19:51:35.797Z,-4.37
2019-01-05T19:54:34.848Z,-4.35
2019-01-05T19:57:23.624Z,-4.39
2019-01-05T20:00:12.264Z,-4.50
2019-01-05T20:03:01.211Z,-4.56
2019-01-05T20:05:51.451Z,-4.54
2019-01-05T20:08:41.747Z,-4.52
2019-01-05T20:11:47.794Z,-4.55
2019-01-05T20:14:38.019Z,-4.52
2019-01-05T20:17:43.358Z,-4.61
2019-01-05T20:20:44.143Z,-4.60
2019-01-05T20:23:33.069Z,-4.63
2019-01-05T20:26:23.853Z,-4.60
2019-01-05T20:29:12.658Z,-4.65
2019-01-05T20:32:07.260Z,-4.61
2019-01-05T20:35:02.590Z,-4.66
2019-01-05T20:38:01.860Z,-4.73
2019-01-05T20:41:04.396Z,-4.75
2019-01-05T20:44:06.454Z,-4.76
2019-01-05T20:46:59.457Z,-4.81
2019-01-05T20:49:48.181Z,-4.86
2019-01-05T20:52:37.099Z,-4.89
2019-01-05T20:55:30.313Z,-4.95
2019-01-05T20:58:20.568Z,-4.91
2019-01-05T21:01:28.831Z,-4.92
2019-01-05T21:04:24.992Z,-4.89
2019-01-05T21:07:30.356Z,-4.89
2019-01-05T21:10:19.151Z,-4.97
2019-01-05T21:13:24.287Z,-4.93
2019-01-05T21:16:20.399Z,-4.96
2019-01-05T21:19:09.258Z,-4.98
2019-01-05T21:21:58.233Z,-5.06
2019-01-05T21:24:54.588Z,-5.05
2019-01-05T21:28:31.071Z,-5.03
2019-01-05T21:31:21.941Z,-5.01
2019-01-05T21:35:06.939Z,-5.05
2019-01-05T21:38:02.024Z,-5.05
2019-01-05T21:41:04.526Z,-5.03
2019-01-05T21:44:12.649Z,-4.98
2019-01-05T21:47:01.279Z,-4.95
2019-01-05T21:49:50.023Z,-4.96
2019-01-05T21:52:44.065Z,-4.95
2019-01-05T21:55:49.692Z,-4.98
2019-01-05T21:58:45.517Z,-4.93
2019-01-05T22:01:35.357Z,-4.89
2019-01-05T22:04:24.381Z,-4.85
2019-01-05T22:07:32.721Z,-4.91
2019-01-05T22:10:21.547Z,-4.87
2019-01-05T22:13:07.688Z,-4.83
2019-01-05T22:16:04.047Z,-4.87
2019-01-05T22:18:54.329Z,-4.81
2019-01-05T22:21:44.654Z,-4.81
2019-01-05T22:24:33.765Z,-4.90
2019-01-05T22:27:42.277Z,-4.84
2019-01-05T22:30:50.499Z,-4.90
2019-01-05T22:33:41.107Z,-4.88
2019-01-05T22:36:29.898Z,-4.83
2019-01-05T22:39:20.199Z,-4.73
2019-01-05T22:42:08.009Z,-4.82
2019-01-05T22:44:56.847Z,-4.84
2019-01-05T22:47:43.932Z,-4.78
2019-01-05T22:50:33.013Z,-4.88
2019-01-05T22:53:23.318Z,-4.84
2019-01-05T22:56:13.638Z,-4.87
2019-01-05T22:59:44.762Z,-4.83
2019-01-05T23:02:40.972Z,-4.82
2019-01-05T23:05:40.171Z,-4.87
2019-01-05T23:08:22.119Z,-5.00
2019-01-05T23:11:32.523Z,-4.99
2019-01-05T23:14:37.625Z,-5.01
2019-01-05T23:17:34.046Z,-4.89
2019-01-05T23:20:23.362Z,-4.91
2019-01-05T23:23:13.751Z,-4.93
2019-01-05T23:26:02.666Z,-4.99
2019-01-05T23:28:49.400Z,-4.92
2019-01-05T23:31:58.256Z,-4.94
2019-01-05T23:34:52.695Z,-4.95
2019-01-05T23:37:51.991Z,-4.93
2019-01-05T23:40:40.961Z,-4.92
2019-01-05T23:43:31.147Z,-4.94
2019-01-05T23:46:20.340Z,-4.86
2019-01-05T23:49:23.789Z,-4.85
2019-01-05T23:52:12.722Z,-4.90
2019-01-05T23:55:01.828Z,-4.87
2019-01-05T23:57:50.571Z,-4.85
